Airfield :
LOGIN :

Register | Disclaimer

   EN    FR    IT 

 










Legend :    VFR   Marginal VFR   IFR   Intensive IFR   Very Intensive IFR
Visi :
Ceiling :
>= 8 km
>= 3000ft
5 to 8 km
1000 to 3000 ft
1500m to 5 km
500 to 1000 ft
800 to 1500m
200 to 500 ft
< 800m
< 200 ft
Symbols :   Thunderstorms  Fog  Heavy snow  Heavy precipitations  Wind > 20 kt
SIGMETs :     Misc.  Thunderstorms  Icing  Turbulence  Mountain Waves  Volcanic Ashes







- Airport Elevation : 505 ft
- IATA code : SXB
- Download approach charts


LFST - Strasbourg

CURRENT METAR :
  • 281230Z AUTO 24010KT 210V270 9999 BKN054 BKN070 BKN082 24/12 Q1016 NOSIG

EXPIRED METARs :
  • 281200Z AUTO 20006KT 140V260 9999 BKN050 BKN064 BKN082 23/13 Q1016 NOSIG
  • 281130Z AUTO 23010KT 200V260 9999 SCT049 BKN058 BKN068 23/12 Q1016 NOSIG
  • 281100Z AUTO 25009KT 210V280 9999 SCT047 BKN060 BKN070 22/12 Q1016 TEMPO FEW030TCU
  • 281030Z AUTO 22010KT 180V250 9999 FEW046 BKN052 BKN064 23/13 Q1016 TEMPO FEW030TCU
  • 281000Z AUTO 23009KT 200V280 9999 BKN047 BKN054 BKN076 22/12 Q1016 TEMPO FEW030TCU

TAF TAF LFST
Valid from the 28 at 06:00 until the 29 at 06:00 UTC


280500Z 2806/2906 24005KT CAVOK
PROB30
TEMPO 2806/2814 FEW030TCU
No reported NOTAMs for that airfield.



MET'MAP, your aeronautical weather chart ! - Copyright ORBIFLY December 2007 - Disclaimer

ORBIFLY MET'MAP TEAM :

Programming & Development : Alexandra Zaïnal
Concept & Development : Baudouin d'Aumeries
Co-Development & Prog : Marc-Olivier Méhu
Technical & hardware support : Manuel Goepfert

Contact : metmap@orbifly.com




SOURCES & CREDITS :

   NOAA